LDZD/ZAD METAR and TAF weather

Enter ICAO airport designator
Station Type Date Time Source
LDZD METAR 2019/08/23 17:30 UTC NOAA

LDZD 231730Z 24004KT 190V320 9999 FEW055 28/20 Q1018 NOSIG


Station Type Date Time Source
LDZD Decoded METAR 2019/08/23 17:30 UTC NOAA

Station name not available
Aug 23, 2019 - 01:30 PM EDT / 2019.08.23 1730 UTC
Wind: from the WSW (240 degrees) at 5 MPH (4 KT) (direction variable):0
Visibility: greater than 7 mile(s):0
Sky conditions: mostly clear
Temperature: 82 F (28 C)
Dew Point: 68 F (20 C)
Relative Humidity: 61%
Pressure (altimeter): 30.06 in. Hg (1018 hPa)
ob: LDZD 231730Z 24004KT 190V320 9999 FEW055 28/20 Q1018 NOSIG
cycle: 17

Station Type Date Time Source
LDZD TAF 2019/08/23 18:29 UTC NOAA

TAF LDZD 231725Z 2318/2418 08007KT 9999 FEW060 TX32/2414Z TN22/2404Z
BECMG 2408/2410 24008KT PROB30
TEMPO 2413/2416 FEW050CB SCT055
BECMG 2416/2418 VRB02KT

Example: see airport list